Terminal Aerodrome Forecast
Issued by NWS

Home | Current Version | Previous Version | Text Only | Print | Product List | Glossary On
Versions: 1 2 3 4 5 6 7 8 9 10 11 12 13 14
000
FTUS46 KPDT 241730
TAFDLS
TAF
KDLS 241730Z 2418/2518 06005KT P6SM SCT045 BKN120
     FM242100 09005KT P6SM VCSH BKN050 OVC120
     FM250300 07007KT P6SM SCT080 BKN140
     FM250900 07005KT 6SM BR BKN015=

USA.gov is the U.S. government's official web portal to all federal, state and local government web resources and services.